Time;durP1;ratioP1;P1;durP2;ratioP2;P2;SDS_P1;SDS_P2;PMS_P1;PMS_P2;Temp;Humidity;BMP_temperature;BMP_pressure;BME280_temperature;BME280_humidity;BME280_pressure;Samples;Min_cycle;Max_cycle;Signal;HPM_P1;HPM_P2
2023/08/04 00:01:05;;;;;;;4.73;2.33;;;;;;;;;;5023412;28;20634;-52
2023/08/04 00:03:31;;;;;;;4.17;2.37;;;;;;;;;;5026934;28;20697;-52
2023/08/04 00:05:57;;;;;;;2.90;2.20;;;;;;;;;;5019335;28;20503;-52
2023/08/04 00:08:23;;;;;;;3.43;2.77;;;;;;;;;;5026595;28;20193;-52
2023/08/04 00:10:50;;;;;;;3.60;2.37;;;;;;;;;;5027740;28;20657;-52
2023/08/04 00:13:16;;;;;;;4.13;2.40;;;;;;;;;;5027143;28;20220;-53
2023/08/04 00:15:42;;;;;;;4.33;2.37;;;;;;;;;;5027138;28;20194;-52
2023/08/04 00:18:08;;;;;;;4.37;2.43;;;;;;;;;;5026168;28;20556;-54
2023/08/04 00:20:34;;;;;;;2.80;2.30;;;;;;;;;;5018876;28;20198;-54
2023/08/04 00:23:00;;;;;;;2.80;2.30;;;;;;;;;;5025002;28;20461;-54
2023/08/04 00:25:26;;;;;;;3.87;2.40;;;;;;;;;;5027700;28;20701;-54
2023/08/04 00:27:52;;;;;;;3.03;2.23;;;;;;;;;;5026431;28;20194;-54
2023/08/04 00:30:18;;;;;;;3.43;2.27;;;;;;;;;;5026988;28;20205;-54
2023/08/04 00:32:44;;;;;;;3.37;2.23;;;;;;;;;;5026310;28;20232;-54
2023/08/04 00:35:10;;;;;;;4.60;2.50;;;;;;;;;;5027540;28;20552;-54
2023/08/04 00:37:36;;;;;;;5.37;3.10;;;;;;;;;;5027457;28;20735;-55
2023/08/04 00:40:03;;;;;;;5.90;3.00;;;;;;;;;;5022807;28;20206;-54
2023/08/04 00:42:29;;;;;;;4.17;2.40;;;;;;;;;;5027911;28;20552;-54
2023/08/04 00:44:55;;;;;;;5.43;2.17;;;;;;;;;;5027286;28;20190;-54
2023/08/04 00:47:21;;;;;;;4.13;2.30;;;;;;;;;;5025974;28;20190;-54
2023/08/04 00:49:48;;;;;;;4.30;2.53;;;;;;;;;;5026002;28;20202;-54
2023/08/04 00:52:14;;;;;;;3.20;2.37;;;;;;;;;;5023912;28;20671;-54
2023/08/04 00:54:40;;;;;;;6.90;2.67;;;;;;;;;;5027638;28;20284;-54
2023/08/04 00:57:06;;;;;;;3.90;2.87;;;;;;;;;;5031663;28;20210;-54
2023/08/04 00:59:32;;;;;;;3.70;2.67;;;;;;;;;;5031788;28;20228;-54
2023/08/04 01:01:59;;;;;;;2.50;2.27;;;;;;;;;;5033245;28;20541;-54
2023/08/04 01:04:25;;;;;;;3.73;2.90;;;;;;;;;;5031073;28;20248;-54
2023/08/04 01:07:09;;;;;;;4.77;2.90;;;;;;;;;;5031174;28;20279;-54
2023/08/04 01:09:51;;;;;;;3.53;2.60;;;;;;;;;;5024564;28;20194;-54
2023/08/04 01:12:26;;;;;;;5.70;2.80;;;;;;;;;;5022291;28;20210;-54
2023/08/04 01:14:53;;;;;;;4.13;2.40;;;;;;;;;;5023662;28;20193;-54
2023/08/04 01:17:22;;;;;;;4.00;2.63;;;;;;;;;;5030254;28;20190;-54
2023/08/04 01:19:48;;;;;;;4.63;2.43;;;;;;;;;;5030420;28;20200;-54
2023/08/04 01:22:14;;;;;;;3.57;2.90;;;;;;;;;;5030312;28;20620;-54
2023/08/04 01:24:40;;;;;;;4.73;3.23;;;;;;;;;;5028608;28;20736;-54
2023/08/04 01:27:07;;;;;;;3.80;2.40;;;;;;;;;;5030290;28;20653;-54
2023/08/04 01:29:33;;;;;;;3.43;2.70;;;;;;;;;;5030760;28;20225;-52
2023/08/04 01:32:00;;;;;;;3.47;2.53;;;;;;;;;;5029670;28;20217;-52
2023/08/04 01:34:26;;;;;;;4.90;3.03;;;;;;;;;;5030406;28;20196;-52
2023/08/04 01:36:52;;;;;;;3.30;2.70;;;;;;;;;;5028616;28;20594;-52
2023/08/04 01:39:18;;;;;;;3.07;2.60;;;;;;;;;;5030733;28;20195;-52
2023/08/04 01:41:44;;;;;;;4.77;2.93;;;;;;;;;;5029236;28;20228;-52
2023/08/04 01:44:11;;;;;;;3.10;2.73;;;;;;;;;;5031064;28;20205;-52
2023/08/04 01:46:37;;;;;;;5.97;3.07;;;;;;;;;;5028549;28;20204;-52
2023/08/04 01:49:03;;;;;;;5.40;3.13;;;;;;;;;;5031440;28;20193;-52
2023/08/04 01:51:29;;;;;;;3.47;2.50;;;;;;;;;;5024925;28;20217;-52
2023/08/04 01:53:55;;;;;;;5.60;2.97;;;;;;;;;;5028916;28;20244;-52
2023/08/04 01:56:21;;;;;;;5.20;3.03;;;;;;;;;;5028153;28;20202;-51
2023/08/04 01:58:47;;;;;;;3.57;2.93;;;;;;;;;;5028282;28;20276;-51
2023/08/04 02:01:13;;;;;;;5.40;3.50;;;;;;;;;;5029271;28;20268;-52
2023/08/04 02:03:39;;;;;;;3.57;2.77;;;;;;;;;;5030556;28;20737;-52
2023/08/04 02:06:05;;;;;;;7.00;3.50;;;;;;;;;;5027677;28;20280;-52
2023/08/04 02:08:31;;;;;;;3.37;2.87;;;;;;;;;;5024446;28;20194;-52
2023/08/04 02:10:57;;;;;;;3.77;3.13;;;;;;;;;;5027559;28;20595;-52
2023/08/04 02:13:23;;;;;;;5.00;3.80;;;;;;;;;;5030233;28;20210;-52
2023/08/04 02:15:49;;;;;;;6.83;3.77;;;;;;;;;;5021037;28;20186;-52
2023/08/04 02:18:15;;;;;;;5.23;3.60;;;;;;;;;;5030367;28;20212;-51
2023/08/04 02:20:41;;;;;;;5.63;3.20;;;;;;;;;;5029228;28;20194;-52
2023/08/04 02:23:08;;;;;;;4.07;2.97;;;;;;;;;;5028818;28;20198;-52
2023/08/04 02:25:34;;;;;;;4.03;3.07;;;;;;;;;;5028396;28;20260;-52
2023/08/04 02:28:00;;;;;;;5.57;2.80;;;;;;;;;;5029356;28;20193;-52
2023/08/04 02:30:26;;;;;;;7.07;3.80;;;;;;;;;;5030383;28;20213;-52
2023/08/04 02:32:52;;;;;;;5.50;2.97;;;;;;;;;;5030894;28;20930;-52
2023/08/04 02:35:18;;;;;;;4.20;3.20;;;;;;;;;;5028816;28;20221;-52
2023/08/04 02:37:44;;;;;;;4.07;3.17;;;;;;;;;;5027553;28;20587;-51
2023/08/04 02:40:10;;;;;;;5.50;3.00;;;;;;;;;;5029296;28;20353;-51
2023/08/04 02:42:36;;;;;;;5.87;3.07;;;;;;;;;;5028589;28;20953;-51
2023/08/04 02:45:02;;;;;;;7.03;3.93;;;;;;;;;;5027054;28;20194;-51
2023/08/04 02:47:28;;;;;;;3.23;2.93;;;;;;;;;;5028402;28;20591;-52
2023/08/04 02:49:54;;;;;;;4.97;2.90;;;;;;;;;;5025935;28;20193;-51
2023/08/04 02:52:20;;;;;;;4.20;2.90;;;;;;;;;;5021165;28;20217;-52
2023/08/04 02:54:46;;;;;;;6.47;2.93;;;;;;;;;;5026040;28;20185;-52
2023/08/04 02:57:12;;;;;;;4.10;3.03;;;;;;;;;;5028886;28;20185;-51
2023/08/04 02:59:38;;;;;;;5.03;3.20;;;;;;;;;;5025386;28;20194;-52
2023/08/04 03:02:05;;;;;;;3.93;3.03;;;;;;;;;;5029092;28;20201;-51
2023/08/04 03:04:31;;;;;;;6.10;3.33;;;;;;;;;;5027766;28;20189;-52
2023/08/04 03:06:57;;;;;;;4.63;3.60;;;;;;;;;;5027933;28;20564;-52
2023/08/04 03:09:23;;;;;;;4.77;2.93;;;;;;;;;;5027067;28;20204;-51
2023/08/04 03:11:49;;;;;;;3.50;3.20;;;;;;;;;;5026893;28;20230;-51
2023/08/04 03:14:15;;;;;;;4.47;3.00;;;;;;;;;;5025620;28;20244;-52
2023/08/04 03:16:41;;;;;;;4.80;4.37;;;;;;;;;;5028056;28;20194;-51
2023/08/04 03:19:07;;;;;;;5.00;3.93;;;;;;;;;;5027607;28;20240;-51
2023/08/04 03:21:34;;;;;;;4.83;2.90;;;;;;;;;;5026348;28;20529;-52
2023/08/04 03:24:00;;;;;;;5.00;3.20;;;;;;;;;;5027929;28;20269;-52
2023/08/04 03:26:26;;;;;;;6.30;3.20;;;;;;;;;;5026304;28;20194;-52
2023/08/04 03:28:52;;;;;;;5.50;3.30;;;;;;;;;;5028286;28;20194;-52
2023/08/04 03:31:18;;;;;;;3.50;3.20;;;;;;;;;;5027654;28;20668;-52
2023/08/04 03:33:44;;;;;;;5.20;3.10;;;;;;;;;;5027717;28;20281;-51
2023/08/04 03:36:10;;;;;;;4.30;3.10;;;;;;;;;;5026904;28;20544;-52
2023/08/04 03:38:36;;;;;;;4.33;3.00;;;;;;;;;;5027364;28;20205;-52
2023/08/04 03:41:02;;;;;;;4.63;3.10;;;;;;;;;;5027258;28;20194;-51
2023/08/04 03:43:28;;;;;;;4.17;3.30;;;;;;;;;;5027352;28;20197;-52
2023/08/04 03:45:54;;;;;;;5.67;2.87;;;;;;;;;;5026120;28;20189;-51
2023/08/04 03:48:20;;;;;;;3.50;2.77;;;;;;;;;;5027562;28;20568;-51
2023/08/04 03:50:46;;;;;;;4.80;3.00;;;;;;;;;;5025739;28;20217;-51
2023/08/04 03:53:12;;;;;;;4.43;2.93;;;;;;;;;;5026443;28;20277;-51
2023/08/04 03:55:38;;;;;;;7.33;3.47;;;;;;;;;;5027678;28;20631;-52
2023/08/04 03:58:04;;;;;;;4.47;3.73;;;;;;;;;;5032899;28;20202;-51
2023/08/04 04:00:31;;;;;;;3.47;3.17;;;;;;;;;;5024615;28;20209;-52
2023/08/04 04:02:57;;;;;;;4.60;3.50;;;;;;;;;;5021916;28;20194;-51
2023/08/04 04:05:23;;;;;;;4.63;4.20;;;;;;;;;;5025887;28;20644;-52
2023/08/04 04:07:49;;;;;;;5.07;3.13;;;;;;;;;;5007349;28;20320;-51
2023/08/04 04:10:15;;;;;;;4.10;3.33;;;;;;;;;;5026072;28;20797;-52
2023/08/04 04:12:41;;;;;;;3.73;2.87;;;;;;;;;;5024339;28;20216;-51
2023/08/04 04:15:07;;;;;;;4.53;3.17;;;;;;;;;;5021415;28;20220;-53
2023/08/04 04:17:34;;;;;;;5.23;3.27;;;;;;;;;;5027157;28;20722;-51
2023/08/04 04:20:00;;;;;;;4.83;3.00;;;;;;;;;;5025513;28;20198;-52
2023/08/04 04:22:27;;;;;;;5.60;3.10;;;;;;;;;;5025506;28;20247;-52
2023/08/04 04:24:53;;;;;;;5.93;3.70;;;;;;;;;;5026500;28;20201;-52
2023/08/04 04:27:19;;;;;;;4.60;3.43;;;;;;;;;;5027833;28;20281;-52
2023/08/04 04:29:45;;;;;;;6.50;4.00;;;;;;;;;;5025015;28;20236;-52
2023/08/04 04:32:11;;;;;;;4.53;3.17;;;;;;;;;;5026611;28;20620;-51
2023/08/04 04:34:37;;;;;;;4.70;3.00;;;;;;;;;;5008962;28;20189;-52
2023/08/04 04:37:04;;;;;;;5.20;3.17;;;;;;;;;;5026031;28;20276;-51
2023/08/04 04:39:30;;;;;;;4.80;3.10;;;;;;;;;;5007372;28;20185;-51
2023/08/04 04:41:56;;;;;;;4.47;3.03;;;;;;;;;;5026151;28;20198;-51
2023/08/04 04:44:22;;;;;;;5.17;3.23;;;;;;;;;;5025379;28;20189;-51
2023/08/04 04:46:48;;;;;;;5.53;3.67;;;;;;;;;;5025180;28;20194;-52
2023/08/04 04:49:16;;;;;;;4.40;3.50;;;;;;;;;;5026248;28;20198;-51
2023/08/04 04:51:42;;;;;;;4.23;2.90;;;;;;;;;;5023387;28;20224;-51
2023/08/04 04:54:08;;;;;;;4.80;3.17;;;;;;;;;;5025148;28;20645;-51
2023/08/04 04:56:34;;;;;;;4.73;4.13;;;;;;;;;;5025064;28;20186;-51
2023/08/04 04:59:00;;;;;;;7.90;3.60;;;;;;;;;;5021952;28;20194;-54
2023/08/04 05:01:26;;;;;;;4.57;3.30;;;;;;;;;;5009217;28;20290;-54
2023/08/04 05:03:52;;;;;;;3.73;3.23;;;;;;;;;;5025149;28;20255;-54
2023/08/04 05:06:19;;;;;;;4.47;3.13;;;;;;;;;;5024464;28;20198;-54
2023/08/04 05:08:45;;;;;;;4.93;3.30;;;;;;;;;;5028821;28;20641;-54
2023/08/04 05:11:11;;;;;;;4.97;3.43;;;;;;;;;;5023998;28;20244;-54
2023/08/04 05:13:37;;;;;;;4.23;3.00;;;;;;;;;;5026776;28;20570;-51
2023/08/04 05:16:04;;;;;;;5.17;3.47;;;;;;;;;;5025913;28;20656;-51
2023/08/04 05:18:31;;;;;;;8.20;3.20;;;;;;;;;;5026985;28;20240;-51
2023/08/04 05:20:57;;;;;;;5.23;3.70;;;;;;;;;;5025434;28;20204;-51
2023/08/04 05:23:23;;;;;;;5.80;3.53;;;;;;;;;;5024703;28;20190;-51
2023/08/04 05:25:49;;;;;;;5.53;3.70;;;;;;;;;;5026009;28;20645;-51
2023/08/04 05:28:21;;;;;;;4.33;3.33;;;;;;;;;;5025150;28;20189;-51
2023/08/04 05:30:47;;;;;;;4.23;3.10;;;;;;;;;;5008329;28;20300;-51
2023/08/04 05:33:14;;;;;;;4.07;3.27;;;;;;;;;;5022577;28;20185;-51
2023/08/04 05:35:44;;;;;;;4.80;3.30;;;;;;;;;;5025551;28;20961;-52
2023/08/04 05:38:10;;;;;;;4.20;3.40;;;;;;;;;;5017199;28;20197;-51
2023/08/04 05:40:38;;;;;;;4.40;4.00;;;;;;;;;;5017793;28;20194;-51
2023/08/04 05:43:04;;;;;;;3.70;3.40;;;;;;;;;;5027578;28;20554;-51
2023/08/04 05:45:35;;;;;;;4.30;3.33;;;;;;;;;;5008855;28;20190;-51
2023/08/04 05:48:01;;;;;;;5.13;3.77;;;;;;;;;;5013171;28;20189;-51
2023/08/04 05:50:27;;;;;;;4.73;3.20;;;;;;;;;;5026719;28;20247;-54
2023/08/04 05:52:54;;;;;;;4.23;3.53;;;;;;;;;;5027387;28;20639;-51
2023/08/04 05:55:23;;;;;;;5.80;3.90;;;;;;;;;;5030240;28;20189;-51
2023/08/04 05:57:50;;;;;;;5.40;3.30;;;;;;;;;;5028337;28;20284;-51
2023/08/04 06:00:17;;;;;;;6.67;4.30;;;;;;;;;;5023888;28;20758;-51
2023/08/04 06:02:44;;;;;;;3.63;3.10;;;;;;;;;;5036510;28;20204;-51
2023/08/04 06:05:11;;;;;;;7.53;3.53;;;;;;;;;;5024878;28;20198;-51
2023/08/04 06:07:37;;;;;;;4.50;3.27;;;;;;;;;;5020513;28;20216;-51
2023/08/04 06:10:03;;;;;;;7.47;4.07;;;;;;;;;;5029005;28;20186;-53
2023/08/04 06:12:30;;;;;;;5.77;3.43;;;;;;;;;;5028740;28;20225;-53
2023/08/04 06:14:56;;;;;;;6.67;3.60;;;;;;;;;;5027511;28;20216;-53
2023/08/04 06:17:22;;;;;;;4.93;3.43;;;;;;;;;;5026639;28;20211;-53
2023/08/04 06:19:48;;;;;;;8.50;3.63;;;;;;;;;;5021950;28;20281;-51
2023/08/04 06:22:15;;;;;;;5.53;3.77;;;;;;;;;;5027360;28;20198;-51
2023/08/04 06:24:41;;;;;;;4.73;3.33;;;;;;;;;;5024425;28;20202;-51
2023/08/04 06:27:07;;;;;;;8.07;4.03;;;;;;;;;;5008019;28;20194;-51
2023/08/04 06:29:34;;;;;;;5.73;3.60;;;;;;;;;;5025224;28;20202;-51
2023/08/04 06:32:00;;;;;;;6.13;3.30;;;;;;;;;;5025294;28;20304;-51
2023/08/04 06:34:26;;;;;;;4.60;3.53;;;;;;;;;;5027408;28;20253;-51
2023/08/04 06:36:52;;;;;;;6.03;3.70;;;;;;;;;;5025953;28;20661;-51
2023/08/04 06:39:18;;;;;;;6.23;3.73;;;;;;;;;;5025868;28;20197;-51
2023/08/04 06:41:44;;;;;;;5.37;4.10;;;;;;;;;;5025754;28;20198;-51
2023/08/04 06:44:13;;;;;;;4.97;3.47;;;;;;;;;;5027158;28;20712;-52
2023/08/04 06:46:39;;;;;;;5.83;3.73;;;;;;;;;;5027381;28;20328;-51
2023/08/04 06:49:05;;;;;;;8.30;4.30;;;;;;;;;;5026506;28;20284;-51
2023/08/04 06:51:32;;;;;;;5.60;3.87;;;;;;;;;;5025040;28;20549;-51
2023/08/04 06:53:58;;;;;;;7.07;3.90;;;;;;;;;;5023117;28;20225;-51
2023/08/04 06:56:24;;;;;;;6.07;3.60;;;;;;;;;;5022555;28;20178;-51
2023/08/04 06:58:50;;;;;;;4.93;3.53;;;;;;;;;;5023621;28;20187;-51
2023/08/04 07:01:16;;;;;;;6.13;3.47;;;;;;;;;;5025383;28;20533;-51
2023/08/04 07:03:45;;;;;;;7.57;3.77;;;;;;;;;;5026083;28;20198;-51
2023/08/04 07:06:11;;;;;;;8.13;4.13;;;;;;;;;;5022993;28;20198;-51
2023/08/04 07:08:37;;;;;;;5.77;4.00;;;;;;;;;;5005217;28;20190;-51
2023/08/04 07:11:03;;;;;;;5.63;3.67;;;;;;;;;;5023568;28;20803;-52
2023/08/04 07:13:29;;;;;;;8.27;3.97;;;;;;;;;;5023374;28;20201;-52
2023/08/04 07:15:59;;;;;;;4.53;3.27;;;;;;;;;;5018226;28;20190;-51
2023/08/04 07:18:25;;;;;;;8.00;4.17;;;;;;;;;;5027184;28;20178;-52
2023/08/04 07:20:53;;;;;;;4.47;3.33;;;;;;;;;;5021714;28;20669;-51
2023/08/04 07:23:19;;;;;;;4.07;3.40;;;;;;;;;;5022065;28;20185;-52
2023/08/04 07:25:45;;;;;;;6.90;3.97;;;;;;;;;;5026038;28;20209;-52
2023/08/04 07:28:11;;;;;;;3.77;3.37;;;;;;;;;;5027619;28;20666;-51
2023/08/04 07:30:37;;;;;;;7.23;4.20;;;;;;;;;;5017874;28;20217;-51
2023/08/04 07:33:06;;;;;;;9.83;4.20;;;;;;;;;;5026980;28;20193;-51
2023/08/04 07:35:32;;;;;;;4.27;3.87;;;;;;;;;;5024058;28;20739;-51
2023/08/04 07:37:59;;;;;;;7.57;4.20;;;;;;;;;;5024984;28;20221;-52
2023/08/04 07:40:25;;;;;;;7.57;4.30;;;;;;;;;;5024672;28;20272;-50
2023/08/04 07:42:51;;;;;;;5.40;3.73;;;;;;;;;;5020329;28;20669;-50
2023/08/04 07:45:17;;;;;;;7.67;4.60;;;;;;;;;;5004062;28;20186;-51
2023/08/04 07:47:43;;;;;;;5.60;4.17;;;;;;;;;;5027786;28;20192;-55
2023/08/04 07:50:10;;;;;;;8.30;4.27;;;;;;;;;;5026407;28;20190;-51
2023/08/04 07:52:36;;;;;;;6.40;4.00;;;;;;;;;;5024075;28;20352;-51
2023/08/04 07:55:02;;;;;;;5.37;4.10;;;;;;;;;;5023687;28;20182;-51
2023/08/04 07:57:29;;;;;;;4.97;3.93;;;;;;;;;;5026445;28;20194;-51
2023/08/04 07:59:55;;;;;;;10.37;4.20;;;;;;;;;;5029807;28;20185;-51
2023/08/04 08:02:21;;;;;;;8.23;5.27;;;;;;;;;;5021936;28;20194;-52
2023/08/04 08:04:47;;;;;;;10.33;5.17;;;;;;;;;;5025763;28;20244;-51
2023/08/04 08:07:13;;;;;;;8.20;4.23;;;;;;;;;;5027570;28;20197;-52
2023/08/04 08:09:39;;;;;;;8.30;4.73;;;;;;;;;;5025487;28;20205;-51
2023/08/04 08:12:06;;;;;;;8.07;4.17;;;;;;;;;;5026426;28;20210;-51
2023/08/04 08:14:32;;;;;;;6.63;4.27;;;;;;;;;;5022985;28;20208;-51
2023/08/04 08:16:58;;;;;;;9.50;5.83;;;;;;;;;;5023982;28;20522;-51
2023/08/04 08:19:24;;;;;;;7.40;4.47;;;;;;;;;;5024381;28;20645;-51
2023/08/04 08:21:50;;;;;;;6.40;3.60;;;;;;;;;;5027834;28;20545;-51
2023/08/04 08:24:16;;;;;;;8.57;4.60;;;;;;;;;;5022705;28;20583;-51
2023/08/04 08:26:42;;;;;;;7.20;4.00;;;;;;;;;;5026997;28;20193;-51
2023/08/04 08:29:08;;;;;;;7.97;4.40;;;;;;;;;;5027986;28;20255;-55
2023/08/04 08:31:34;;;;;;;6.10;4.40;;;;;;;;;;5027679;28;20599;-51
2023/08/04 08:34:00;;;;;;;9.17;4.90;;;;;;;;;;5026345;28;20251;-51
2023/08/04 08:36:27;;;;;;;5.43;4.27;;;;;;;;;;5025056;28;20598;-51
2023/08/04 08:38:53;;;;;;;4.77;4.37;;;;;;;;;;5009393;28;20197;-49
2023/08/04 08:41:19;;;;;;;6.63;4.60;;;;;;;;;;5026307;28;20185;-50
2023/08/04 08:43:46;;;;;;;6.60;5.03;;;;;;;;;;5026214;28;20193;-51
2023/08/04 08:46:13;;;;;;;7.47;4.60;;;;;;;;;;5023019;28;20194;-50
2023/08/04 08:48:44;;;;;;;6.33;4.57;;;;;;;;;;5024297;28;20279;-51
2023/08/04 08:51:17;;;;;;;6.13;4.13;;;;;;;;;;5025265;28;20213;-50
2023/08/04 08:53:44;;;;;;;6.37;4.10;;;;;;;;;;5023670;28;20519;-50
2023/08/04 08:56:11;;;;;;;7.50;4.40;;;;;;;;;;5006330;28;20189;-51
2023/08/04 08:58:38;;;;;;;7.27;4.37;;;;;;;;;;5023354;28;20231;-51
2023/08/04 09:01:04;;;;;;;6.43;4.17;;;;;;;;;;5023029;28;20208;-50
2023/08/04 09:03:30;;;;;;;6.83;4.53;;;;;;;;;;5024520;28;20244;-50
2023/08/04 09:05:57;;;;;;;4.37;3.93;;;;;;;;;;5003619;28;20204;-51
2023/08/04 09:08:23;;;;;;;5.07;4.57;;;;;;;;;;5021305;28;20653;-50
2023/08/04 09:10:49;;;;;;;6.07;4.33;;;;;;;;;;5027759;28;20232;-50
2023/08/04 09:13:15;;;;;;;7.03;4.57;;;;;;;;;;5029160;28;20190;-51
2023/08/04 09:15:49;;;;;;;7.07;4.40;;;;;;;;;;5022433;28;20822;-52
2023/08/04 09:18:25;;;;;;;5.50;3.70;;;;;;;;;;5026352;28;20216;-51
2023/08/04 09:21:09;;;;;;;5.87;4.10;;;;;;;;;;5027194;28;20276;-51
2023/08/04 09:23:36;;;;;;;7.73;3.83;;;;;;;;;;5024702;28;20553;-51
2023/08/04 09:26:05;;;;;;;5.10;3.57;;;;;;;;;;5024330;28;20270;-51
2023/08/04 09:28:32;;;;;;;4.63;4.07;;;;;;;;;;5026415;28;20273;-51
2023/08/04 09:31:06;;;;;;;5.27;3.97;;;;;;;;;;5012245;28;20213;-51
2023/08/04 09:33:33;;;;;;;6.93;3.73;;;;;;;;;;5028726;28;20336;-51
2023/08/04 09:36:02;;;;;;;6.93;4.33;;;;;;;;;;5029050;28;20221;-51
2023/08/04 09:38:28;;;;;;;7.13;4.27;;;;;;;;;;5007637;28;20190;-51
2023/08/04 09:41:02;;;;;;;4.57;3.73;;;;;;;;;;5025537;28;20182;-51
2023/08/04 09:43:28;;;;;;;6.87;4.13;;;;;;;;;;5024379;28;20219;-52
2023/08/04 09:45:57;;;;;;;6.20;4.57;;;;;;;;;;5023500;28;20189;-51
2023/08/04 09:48:27;;;;;;;4.97;4.30;;;;;;;;;;5023606;28;20199;-51
2023/08/04 09:51:08;;;;;;;4.97;4.27;;;;;;;;;;5025830;28;20276;-51
2023/08/04 09:53:38;;;;;;;4.40;3.87;;;;;;;;;;5022992;28;20186;-51
2023/08/04 09:56:05;;;;;;;4.13;3.70;;;;;;;;;;5024915;28;20243;-51
2023/08/04 09:58:31;;;;;;;5.80;4.23;;;;;;;;;;5005758;28;20205;-51
2023/08/04 10:00:58;;;;;;;4.70;4.17;;;;;;;;;;5025842;28;20248;-51
2023/08/04 10:03:25;;;;;;;5.17;3.83;;;;;;;;;;5028591;28;20201;-52
2023/08/04 10:05:52;;;;;;;5.97;4.30;;;;;;;;;;5022863;28;20217;-51
2023/08/04 10:08:19;;;;;;;5.07;4.23;;;;;;;;;;5020303;28;20202;-51
2023/08/04 10:10:46;;;;;;;4.30;3.90;;;;;;;;;;5007847;28;20198;-51
2023/08/04 10:13:13;;;;;;;4.20;3.80;;;;;;;;;;5010421;28;20201;-51
2023/08/04 10:15:40;;;;;;;4.47;4.03;;;;;;;;;;5029182;28;20741;-51
2023/08/04 10:18:06;;;;;;;4.93;4.43;;;;;;;;;;5029334;28;20289;-51
2023/08/04 10:20:35;;;;;;;5.20;3.90;;;;;;;;;;5022126;28;20194;-52
2023/08/04 10:23:03;;;;;;;6.23;4.27;;;;;;;;;;5023490;28;20193;-51
2023/08/04 10:25:30;;;;;;;4.20;3.80;;;;;;;;;;5023022;28;20193;-51
2023/08/04 10:27:58;;;;;;;4.37;3.97;;;;;;;;;;5019343;28;20198;-51
2023/08/04 10:30:24;;;;;;;4.53;3.97;;;;;;;;;;5026609;28;20240;-50
2023/08/04 10:32:51;;;;;;;4.43;4.03;;;;;;;;;;5008060;28;20213;-51
2023/08/04 10:35:19;;;;;;;4.20;3.80;;;;;;;;;;5015767;28;20221;-52
2023/08/04 10:37:55;;;;;;;11.20;5.33;;;;;;;;;;5020168;28;20649;-50
2023/08/04 10:40:28;;;;;;;3.90;3.60;;;;;;;;;;5021161;28;20186;-50
2023/08/04 10:43:02;;;;;;;5.70;3.70;;;;;;;;;;5002061;28;20194;-50
2023/08/04 10:45:55;;;;;;;4.47;3.73;;;;;;;;;;5021985;28;20194;-50
2023/08/04 10:48:22;;;;;;;4.20;3.80;;;;;;;;;;5013398;28;20202;-50
2023/08/04 10:50:51;;;;;;;3.87;3.50;;;;;;;;;;5020599;28;20194;-50
2023/08/04 10:53:17;;;;;;;4.40;3.77;;;;;;;;;;5025062;28;20703;-50
2023/08/04 10:55:54;;;;;;;4.83;4.30;;;;;;;;;;5019459;28;20191;-50
2023/08/04 10:58:20;;;;;;;5.00;3.50;;;;;;;;;;5019229;28;20212;-50
2023/08/04 11:00:47;;;;;;;4.27;3.87;;;;;;;;;;5022260;28;20190;-51
2023/08/04 11:03:21;;;;;;;4.87;4.47;;;;;;;;;;5006856;28;20193;-50
2023/08/04 11:05:48;;;;;;;4.30;3.70;;;;;;;;;;5023726;28;20243;-51
2023/08/04 11:08:14;;;;;;;7.47;3.80;;;;;;;;;;5021368;28;20679;-50
2023/08/04 11:10:48;;;;;;;3.90;3.50;;;;;;;;;;5005417;28;20277;-50
2023/08/04 11:13:17;;;;;;;4.23;3.83;;;;;;;;;;5006908;28;20697;-50
2023/08/04 11:15:43;;;;;;;4.33;3.93;;;;;;;;;;5021405;28;20282;-50
2023/08/04 11:18:13;;;;;;;4.30;3.90;;;;;;;;;;5021280;28;20216;-50
2023/08/04 11:20:42;;;;;;;4.03;3.63;;;;;;;;;;5018973;28;20221;-51
2023/08/04 11:23:10;;;;;;;3.90;3.50;;;;;;;;;;5014798;28;20221;-50
2023/08/04 11:25:37;;;;;;;4.47;3.57;;;;;;;;;;5018972;28;20272;-51
2023/08/04 11:28:03;;;;;;;5.20;4.10;;;;;;;;;;4999478;28;20209;-51
2023/08/04 11:30:30;;;;;;;4.87;4.30;;;;;;;;;;5020649;28;20291;-51
2023/08/04 11:32:56;;;;;;;4.47;3.80;;;;;;;;;;5020548;28;20214;-51
2023/08/04 11:35:23;;;;;;;5.23;4.00;;;;;;;;;;5026116;28;20624;-51
2023/08/04 11:37:49;;;;;;;5.30;3.97;;;;;;;;;;5019697;28;20648;-51
2023/08/04 11:40:22;;;;;;;5.47;4.10;;;;;;;;;;5020137;28;20272;-51
2023/08/04 11:42:49;;;;;;;3.93;3.53;;;;;;;;;;5020748;28;20790;-51
2023/08/04 11:45:15;;;;;;;4.17;3.77;;;;;;;;;;5020628;28;20190;-50
2023/08/04 11:47:41;;;;;;;4.60;4.00;;;;;;;;;;5022794;28;20720;-50
2023/08/04 11:50:09;;;;;;;4.37;3.97;;;;;;;;;;5013507;28;20309;-50
2023/08/04 11:52:38;;;;;;;4.43;4.03;;;;;;;;;;5009930;28;20225;-51
2023/08/04 11:55:05;;;;;;;6.10;4.57;;;;;;;;;;5025554;28;20190;-51
2023/08/04 11:57:31;;;;;;;5.20;4.30;;;;;;;;;;5016883;28;20718;-52
2023/08/04 11:59:58;;;;;;;4.60;3.77;;;;;;;;;;5025335;28;20243;-52
2023/08/04 12:02:26;;;;;;;6.27;4.33;;;;;;;;;;5014160;28;20216;-51
2023/08/04 12:05:11;;;;;;;4.30;3.90;;;;;;;;;;5026693;28;20198;-50
2023/08/04 12:07:37;;;;;;;4.13;3.80;;;;;;;;;;5010633;28;20197;-50
2023/08/04 12:10:05;;;;;;;5.37;4.17;;;;;;;;;;5025362;28;20683;-54
2023/08/04 12:12:35;;;;;;;5.70;4.60;;;;;;;;;;5023056;28;20322;-55
2023/08/04 12:15:01;;;;;;;4.00;3.37;;;;;;;;;;5023807;28;20250;-54
2023/08/04 12:17:40;;;;;;;4.30;3.03;;;;;;;;;;5024182;28;20237;-54
2023/08/04 12:20:08;;;;;;;3.90;3.20;;;;;;;;;;5007788;28;20570;-55
2023/08/04 12:22:37;;;;;;;4.07;3.30;;;;;;;;;;5018364;28;20207;-55
2023/08/04 12:25:04;;;;;;;3.67;3.37;;;;;;;;;;5024404;28;20241;-55
2023/08/04 12:27:30;;;;;;;3.83;3.30;;;;;;;;;;5022133;28;20210;-55
2023/08/04 12:29:56;;;;;;;3.20;3.00;;;;;;;;;;5026003;28;20202;-56
2023/08/04 12:32:22;;;;;;;3.40;3.10;;;;;;;;;;5022366;28;20201;-56
2023/08/04 12:34:48;;;;;;;3.67;3.33;;;;;;;;;;5024974;28;20550;-56
2023/08/04 12:37:16;;;;;;;3.40;2.93;;;;;;;;;;5021245;28;20272;-55
2023/08/04 12:39:44;;;;;;;4.23;3.33;;;;;;;;;;5022950;28;20202;-55
2023/08/04 12:42:10;;;;;;;3.73;3.37;;;;;;;;;;5023862;28;21112;-55
2023/08/04 12:44:36;;;;;;;3.07;2.80;;;;;;;;;;5015089;28;20208;-55
2023/08/04 12:47:02;;;;;;;3.47;3.20;;;;;;;;;;5022003;28;20193;-54
2023/08/04 12:49:29;;;;;;;4.00;3.70;;;;;;;;;;5020446;28;20224;-54
2023/08/04 12:51:55;;;;;;;4.30;3.07;;;;;;;;;;5024485;28;20211;-54
2023/08/04 12:54:23;;;;;;;3.70;3.07;;;;;;;;;;5023183;28;20609;-54
2023/08/04 12:56:49;;;;;;;3.57;3.27;;;;;;;;;;5027356;28;20679;-54
2023/08/04 12:59:15;;;;;;;3.50;3.20;;;;;;;;;;5021887;28;20247;-54
2023/08/04 13:01:41;;;;;;;3.43;3.13;;;;;;;;;;5020235;28;20260;-55
2023/08/04 13:04:07;;;;;;;3.20;2.90;;;;;;;;;;5030879;28;20199;-54
2023/08/04 13:06:34;;;;;;;3.50;3.13;;;;;;;;;;5023608;28;20710;-55
2023/08/04 13:09:00;;;;;;;3.80;3.30;;;;;;;;;;5023213;28;20206;-56
2023/08/04 13:11:26;;;;;;;6.17;3.80;;;;;;;;;;5021364;28;20206;-57
2023/08/04 13:13:52;;;;;;;4.93;3.47;;;;;;;;;;5026496;28;20621;-58
2023/08/04 13:16:18;;;;;;;6.70;3.80;;;;;;;;;;5023321;28;20196;-58
2023/08/04 13:18:44;;;;;;;4.10;3.70;;;;;;;;;;5024719;28;20193;-52
2023/08/04 13:21:15;;;;;;;5.27;3.93;;;;;;;;;;5024224;28;20181;-54
2023/08/04 13:23:41;;;;;;;5.80;4.00;;;;;;;;;;5024346;28;20671;-53
2023/08/04 13:26:08;;;;;;;3.97;3.57;;;;;;;;;;5009937;28;20215;-54
2023/08/04 13:28:34;;;;;;;5.00;4.53;;;;;;;;;;5030060;28;20276;-53
2023/08/04 13:31:04;;;;;;;5.07;3.83;;;;;;;;;;5024759;28;20205;-53
2023/08/04 13:33:30;;;;;;;4.57;3.83;;;;;;;;;;5025537;28;20205;-52
2023/08/04 13:35:56;;;;;;;3.87;3.17;;;;;;;;;;5028602;28;20689;-53
2023/08/04 13:38:22;;;;;;;4.20;3.30;;;;;;;;;;5027125;28;20189;-53
2023/08/04 13:40:48;;;;;;;3.63;3.00;;;;;;;;;;5026790;28;20238;-54
2023/08/04 13:43:15;;;;;;;5.73;3.00;;;;;;;;;;5021549;28;20261;-53
2023/08/04 13:45:41;;;;;;;3.43;2.77;;;;;;;;;;5029699;28;20431;-53
2023/08/04 13:48:07;;;;;;;3.97;3.40;;;;;;;;;;5030575;28;20639;-53
2023/08/04 13:50:33;;;;;;;3.93;3.43;;;;;;;;;;5017601;28;20195;-53
2023/08/04 13:52:59;;;;;;;3.40;3.10;;;;;;;;;;5026655;28;20580;-53
2023/08/04 13:55:25;;;;;;;3.37;3.00;;;;;;;;;;5020062;28;20188;-54
2023/08/04 13:57:51;;;;;;;6.97;4.27;;;;;;;;;;5025630;28;20474;-55
2023/08/04 14:00:18;;;;;;;3.33;3.03;;;;;;;;;;5022499;28;20193;-55
2023/08/04 14:02:44;;;;;;;3.10;2.80;;;;;;;;;;5032115;28;20190;-54
2023/08/04 14:05:10;;;;;;;3.37;3.07;;;;;;;;;;5026851;28;20205;-54
2023/08/04 14:07:43;;;;;;;3.60;2.90;;;;;;;;;;5021584;28;20738;-55
2023/08/04 14:10:13;;;;;;;3.17;2.73;;;;;;;;;;5023087;28;20223;-54
2023/08/04 14:12:39;;;;;;;3.23;3.00;;;;;;;;;;5018727;28;20734;-53
2023/08/04 14:15:06;;;;;;;3.63;3.00;;;;;;;;;;5027501;28;20273;-53
2023/08/04 14:17:32;;;;;;;3.03;2.73;;;;;;;;;;5027072;28;20185;-53
2023/08/04 14:19:58;;;;;;;5.23;2.57;;;;;;;;;;5022501;28;20641;-53
2023/08/04 14:22:24;;;;;;;3.37;3.07;;;;;;;;;;5021344;28;20201;-53
2023/08/04 14:24:50;;;;;;;2.93;2.73;;;;;;;;;;5024682;28;20201;-53
2023/08/04 14:27:16;;;;;;;3.63;3.27;;;;;;;;;;5012482;28;20266;-53
2023/08/04 14:29:44;;;;;;;2.73;2.53;;;;;;;;;;5015525;28;20201;-53
2023/08/04 14:32:10;;;;;;;6.57;2.50;;;;;;;;;;5021354;28;20216;-54
2023/08/04 14:34:36;;;;;;;3.27;2.97;;;;;;;;;;5018078;28;20201;-53
2023/08/04 14:37:03;;;;;;;2.90;2.70;;;;;;;;;;5022765;28;20190;-54
2023/08/04 14:39:29;;;;;;;2.97;2.67;;;;;;;;;;5023896;28;20188;-55
2023/08/04 14:41:55;;;;;;;4.10;2.83;;;;;;;;;;5022173;28;20187;-54